KPVW/PVW METAR and TAF weather

Enter ICAO airport designator
Station Type Date Time Source
KPVW METAR 2020/09/30 16:35 UTC NOAA

KPVW 301635Z AUTO 32004KT 10SM CLR 25/M01 A3013 RMK AO2 T02531011


Station Type Date Time Source
KPVW Decoded METAR 2020/09/30 16:35 UTC NOAA

Plainview, Hale County Airport, TX, United States (KPVW) 34-10-05N 101-43-02W
Sep 30, 2020 - 12:35 PM EDT / 2020.09.30 1635 UTC
Wind: from the NW (320 degrees) at 5 MPH (4 KT):0
Visibility: 10 mile(s):0
Sky conditions: clear
Temperature: 77.5 F (25.3 C)
Dew Point: 30.0 F (-1.1 C)
Relative Humidity: 17%
Pressure (altimeter): 30.13 in. Hg (1020 hPa)
ob: KPVW 301635Z AUTO 32004KT 10SM CLR 25/M01 A3013 RMK AO2 T02531011
cycle: 16

Station Type Date Time Source
KPVW TAF 2020/09/30 12:22 UTC NOAA

TAF KPVW 301120Z 3012/0112 27007KT P6SM SKC
FM302300 12008KT P6SM SKC

Example: see airport list